createdAt,value
2022-10-22T00:00:54.253Z,13.76
2022-10-22T00:03:21.988Z,13.66
2022-10-22T00:05:49.859Z,13.73
2022-10-22T00:08:17.606Z,13.78
2022-10-22T00:10:45.421Z,13.59
2022-10-22T00:13:15.681Z,13.79
2022-10-22T00:15:43.381Z,13.81
2022-10-22T00:18:11.066Z,13.60
2022-10-22T00:20:38.803Z,13.58
2022-10-22T00:23:06.555Z,13.25
2022-10-22T00:25:35.767Z,13.23
2022-10-22T00:28:03.942Z,13.23
2022-10-22T00:30:32.995Z,13.20
2022-10-22T00:33:00.813Z,13.29
2022-10-22T00:35:28.605Z,13.33
2022-10-22T00:37:56.265Z,13.37
2022-10-22T00:40:24.086Z,13.38
2022-10-22T00:42:51.714Z,13.34
2022-10-22T00:45:24.631Z,13.44
2022-10-22T00:47:58.820Z,13.59
2022-10-22T00:50:31.331Z,13.52
2022-10-22T00:52:59.920Z,13.88
2022-10-22T00:55:29.595Z,13.62
2022-10-22T00:57:59.180Z,13.72
2022-10-22T01:00:27.598Z,13.77
2022-10-22T01:02:56.957Z,13.84
2022-10-22T01:05:27.874Z,13.62
2022-10-22T01:07:55.863Z,13.40
2022-10-22T01:10:39.978Z,13.50
2022-10-22T01:13:21.074Z,13.38
2022-10-22T01:15:56.893Z,13.34
2022-10-22T01:18:33.832Z,13.54
2022-10-22T01:21:10.758Z,13.45
2022-10-22T01:24:05.226Z,13.40
2022-10-22T01:26:45.008Z,13.46
2022-10-22T01:29:18.115Z,13.51
2022-10-22T01:31:50.020Z,13.47
2022-10-22T01:34:19.956Z,13.54
2022-10-22T01:36:49.128Z,13.43
2022-10-22T01:39:18.332Z,13.39
2022-10-22T01:41:46.289Z,13.48
2022-10-22T01:44:30.132Z,13.71
2022-10-22T01:47:08.829Z,13.63
2022-10-22T01:49:55.897Z,13.35
2022-10-22T01:52:33.034Z,13.37
2022-10-22T01:55:15.978Z,13.46
2022-10-22T01:57:52.044Z,13.46
2022-10-22T02:00:21.444Z,13.45
2022-10-22T02:02:57.366Z,13.44
2022-10-22T02:05:31.167Z,13.54
2022-10-22T02:08:02.827Z,13.49
2022-10-22T02:10:31.529Z,13.78
2022-10-22T02:13:02.111Z,14.31
2022-10-22T02:15:34.267Z,13.79
2022-10-22T02:18:02.074Z,13.73
2022-10-22T02:20:32.588Z,13.61
2022-10-22T02:23:01.577Z,13.72
2022-10-22T02:25:33.017Z,13.79
2022-10-22T02:28:08.731Z,13.48
2022-10-22T02:30:40.924Z,13.61
2022-10-22T02:33:13.837Z,13.51
2022-10-22T02:35:43.530Z,13.62
2022-10-22T02:38:12.573Z,13.41
2022-10-22T02:40:40.333Z,13.40
2022-10-22T02:43:08.493Z,13.66
2022-10-22T02:45:37.992Z,14.24
2022-10-22T02:48:06.385Z,14.46
2022-10-22T02:50:34.058Z,14.89
2022-10-22T02:53:01.832Z,14.71
2022-10-22T02:55:29.530Z,14.77
2022-10-22T02:57:57.225Z,14.69
2022-10-22T03:00:25.062Z,14.78
2022-10-22T03:02:54.158Z,14.66
2022-10-22T03:05:21.937Z,14.27
2022-10-22T03:07:49.707Z,14.02
2022-10-22T03:10:17.602Z,14.06
2022-10-22T03:12:45.341Z,13.92
2022-10-22T03:15:13.019Z,14.00
2022-10-22T03:17:40.976Z,14.16
2022-10-22T03:20:10.891Z,13.93
2022-10-22T03:22:42.271Z,14.13
2022-10-22T03:25:14.143Z,14.21
2022-10-22T03:27:43.450Z,14.49
2022-10-22T03:30:12.102Z,15.08
2022-10-22T03:32:39.958Z,15.02
2022-10-22T03:35:08.146Z,15.35
2022-10-22T03:37:38.119Z,15.52
2022-10-22T03:40:08.664Z,14.82
2022-10-22T03:42:36.524Z,13.99
2022-10-22T03:45:05.103Z,13.79
2022-10-22T03:47:32.801Z,13.96
2022-10-22T03:50:00.627Z,13.87
2022-10-22T03:52:28.338Z,13.88
2022-10-22T03:54:57.703Z,14.00
2022-10-22T03:57:25.421Z,14.26
2022-10-22T03:59:53.139Z,14.43
2022-10-22T04:02:20.841Z,14.53
2022-10-22T04:04:48.533Z,13.92
2022-10-22T04:07:16.368Z,14.65
2022-10-22T04:09:44.065Z,14.25
2022-10-22T04:12:13.109Z,14.05
2022-10-22T04:14:40.922Z,14.57
2022-10-22T04:17:08.591Z,15.15
2022-10-22T04:19:36.551Z,14.88
2022-10-22T04:22:04.560Z,15.36
2022-10-22T04:24:33.251Z,15.39
2022-10-22T04:27:00.960Z,15.19
2022-10-22T04:29:29.951Z,14.25
2022-10-22T04:31:57.678Z,14.98
2022-10-22T04:34:28.732Z,14.55
2022-10-22T04:36:56.710Z,13.53
2022-10-22T04:39:24.352Z,13.96
2022-10-22T04:41:52.090Z,13.71
2022-10-22T04:44:19.792Z,13.74
2022-10-22T04:46:49.021Z,14.59
2022-10-22T04:49:16.754Z,14.10
2022-10-22T04:51:44.480Z,14.34
2022-10-22T04:54:12.160Z,14.31
2022-10-22T04:56:39.866Z,14.60
2022-10-22T04:59:09.407Z,14.47
2022-10-22T05:01:42.656Z,14.34
2022-10-22T05:04:15.226Z,14.71
2022-10-22T05:06:43.546Z,14.49
2022-10-22T05:09:14.162Z,15.11
2022-10-22T05:11:45.426Z,15.25
2022-10-22T05:14:13.469Z,15.45
2022-10-22T05:16:41.192Z,15.62
2022-10-22T05:19:10.034Z,15.77
2022-10-22T05:21:39.408Z,15.79
2022-10-22T05:24:08.029Z,15.75
2022-10-22T05:26:35.689Z,15.81
2022-10-22T05:29:03.492Z,15.97
2022-10-22T05:31:31.201Z,15.59
2022-10-22T05:33:58.858Z,15.42
2022-10-22T05:36:26.550Z,15.24
2022-10-22T05:38:55.837Z,14.27
2022-10-22T05:41:25.123Z,14.44
2022-10-22T05:43:55.326Z,14.69
2022-10-22T05:46:25.132Z,15.17
2022-10-22T05:48:53.560Z,14.94
2022-10-22T05:51:21.655Z,15.35
2022-10-22T05:53:53.753Z,15.44
2022-10-22T05:56:23.358Z,15.51
2022-10-22T05:58:51.251Z,15.48
2022-10-22T06:01:21.332Z,15.77
2022-10-22T06:03:49.517Z,15.80
2022-10-22T06:06:21.276Z,15.81
2022-10-22T06:08:51.022Z,15.80
2022-10-22T06:11:20.385Z,15.97
2022-10-22T06:13:50.504Z,16.13
2022-10-22T06:16:18.479Z,16.23
2022-10-22T06:18:46.155Z,15.92
2022-10-22T06:21:16.621Z,15.53
2022-10-22T06:23:45.296Z,15.55
2022-10-22T06:26:13.212Z,15.54
2022-10-22T06:28:40.900Z,14.83
2022-10-22T06:31:10.612Z,14.40
2022-10-22T06:33:42.229Z,13.82
2022-10-22T06:36:12.015Z,13.42
2022-10-22T06:38:40.401Z,13.43
2022-10-22T06:41:09.883Z,13.72
2022-10-22T06:43:37.722Z,13.92
2022-10-22T06:46:08.701Z,14.52
2022-10-22T06:48:37.976Z,14.35
2022-10-22T06:51:08.406Z,14.64
2022-10-22T06:53:37.537Z,14.52
2022-10-22T06:56:09.908Z,13.92
2022-10-22T06:58:37.907Z,14.13
2022-10-22T07:01:07.827Z,14.54
2022-10-22T07:03:37.081Z,15.08
2022-10-22T07:06:08.435Z,14.99
2022-10-22T07:08:37.010Z,15.15
2022-10-22T07:11:09.377Z,15.54
2022-10-22T07:13:37.234Z,15.88
2022-10-22T07:16:05.985Z,15.75
2022-10-22T07:18:34.979Z,15.48
2022-10-22T07:21:04.216Z,15.57
2022-10-22T07:23:32.460Z,15.38
2022-10-22T07:26:02.385Z,15.87
2022-10-22T07:28:30.184Z,16.08
2022-10-22T07:30:57.877Z,16.09
2022-10-22T07:33:25.628Z,16.44
2022-10-22T07:35:59.140Z,16.57
2022-10-22T07:38:29.022Z,16.77
2022-10-22T07:40:57.021Z,16.89
2022-10-22T07:43:25.542Z,16.96
2022-10-22T07:45:55.596Z,17.08
2022-10-22T07:48:23.572Z,17.56
2022-10-22T07:50:54.050Z,18.07
2022-10-22T07:53:22.405Z,18.41
2022-10-22T07:55:52.571Z,18.72
2022-10-22T07:58:21.192Z,17.99
2022-10-22T08:00:49.795Z,17.78
2022-10-22T08:03:18.968Z,17.76
2022-10-22T08:05:47.100Z,16.84
2022-10-22T08:08:16.246Z,16.23
2022-10-22T08:10:44.617Z,16.19
2022-10-22T08:13:13.725Z,16.02
2022-10-22T08:18:16.025Z,15.89
2022-10-22T08:20:43.696Z,16.23
2022-10-22T08:23:11.411Z,15.69
2022-10-22T08:25:39.162Z,16.03
2022-10-22T08:28:06.886Z,15.71
2022-10-22T08:30:37.886Z,16.75
2022-10-22T08:33:06.108Z,17.82
2022-10-22T08:35:33.869Z,17.87
2022-10-22T08:38:01.545Z,17.83
2022-10-22T08:40:33.009Z,17.92
2022-10-22T08:43:18.938Z,17.57
2022-10-22T08:45:57.098Z,18.47
2022-10-22T08:48:40.703Z,19.50
2022-10-22T08:51:15.859Z,20.52
2022-10-22T08:53:59.313Z,20.00
2022-10-22T08:56:27.110Z,19.42
2022-10-22T08:59:01.347Z,19.02
2022-10-22T09:01:35.258Z,19.03
2022-10-22T09:04:06.079Z,19.59
2022-10-22T09:06:36.462Z,18.82
2022-10-22T09:09:13.619Z,20.37
2022-10-22T09:11:45.510Z,18.78
2022-10-22T09:14:16.761Z,20.02
2022-10-22T09:17:04.078Z,18.13
2022-10-22T09:19:41.146Z,18.51
2022-10-22T09:22:19.432Z,18.80
2022-10-22T09:24:48.889Z,19.27
2022-10-22T09:27:19.015Z,19.55
2022-10-22T09:29:48.199Z,20.68
2022-10-22T09:32:18.508Z,19.43
2022-10-22T09:34:46.824Z,19.23
2022-10-22T09:37:18.966Z,18.69
2022-10-22T09:39:48.631Z,19.15
2022-10-22T09:42:21.655Z,18.95
2022-10-22T09:44:54.257Z,19.06
2022-10-22T09:47:43.539Z,19.33
2022-10-22T09:50:27.994Z,19.54
2022-10-22T09:52:59.509Z,19.76
2022-10-22T09:55:28.171Z,19.50
2022-10-22T09:57:57.008Z,20.57
2022-10-22T10:00:25.925Z,18.66
2022-10-22T10:02:57.722Z,18.46
2022-10-22T10:05:31.477Z,19.29
2022-10-22T10:07:59.615Z,20.16
2022-10-22T10:10:36.139Z,21.12
2022-10-22T10:13:18.559Z,20.91
2022-10-22T10:15:55.459Z,20.35
2022-10-22T10:18:37.825Z,20.26
2022-10-22T10:23:57.818Z,22.88
2022-10-22T10:26:32.570Z,21.44
2022-10-22T10:29:14.960Z,20.23
2022-10-22T10:31:53.483Z,21.92
2022-10-22T10:34:32.969Z,19.69
2022-10-22T10:37:05.549Z,21.28
2022-10-22T10:39:51.531Z,19.54
2022-10-22T10:42:27.758Z,20.35
2022-10-22T10:45:04.917Z,19.49
2022-10-22T10:47:48.201Z,21.79
2022-10-22T10:50:25.339Z,21.15
2022-10-22T10:53:04.455Z,20.78
2022-10-22T10:55:38.337Z,20.45
2022-10-22T10:58:11.288Z,22.17
2022-10-22T11:00:48.195Z,22.30
2022-10-22T11:03:50.308Z,23.10
2022-10-22T11:06:25.359Z,23.05
2022-10-22T11:08:58.969Z,23.04
2022-10-22T11:11:34.009Z,24.11
2022-10-22T11:14:11.077Z,25.01
2022-10-22T11:16:46.133Z,22.96
2022-10-22T11:19:22.791Z,24.28
2022-10-22T11:22:07.312Z,23.69
2022-10-22T11:24:42.144Z,23.23
2022-10-22T11:27:23.791Z,21.79
2022-10-22T11:29:59.352Z,22.74
2022-10-22T11:32:28.389Z,22.18
2022-10-22T11:34:59.602Z,23.73
2022-10-22T11:37:34.778Z,22.96
2022-10-22T11:40:06.566Z,23.01
2022-10-22T11:42:36.041Z,21.69
2022-10-22T11:45:07.952Z,23.25
2022-10-22T11:47:42.824Z,21.26
2022-10-22T11:50:22.842Z,21.15
2022-10-22T11:53:00.598Z,21.86
2022-10-22T11:55:33.211Z,22.09
2022-10-22T11:58:02.187Z,23.89
2022-10-22T12:00:42.259Z,24.50
2022-10-22T12:03:24.642Z,25.29
2022-10-22T12:06:11.525Z,22.91
2022-10-22T12:08:45.732Z,21.93
2022-10-22T12:11:17.769Z,22.69
2022-10-22T12:14:03.762Z,22.97
2022-10-22T12:16:55.123Z,24.66
2022-10-22T12:19:32.928Z,21.74
2022-10-22T12:22:07.314Z,22.92
2022-10-22T12:24:40.534Z,23.88
2022-10-22T12:27:22.213Z,23.80
2022-10-22T12:29:54.884Z,23.08
2022-10-22T12:32:22.652Z,24.39
2022-10-22T12:34:52.868Z,25.21
2022-10-22T12:37:21.237Z,25.16
2022-10-22T12:39:50.383Z,24.43
2022-10-22T12:42:19.032Z,22.86
2022-10-22T12:44:47.167Z,21.60
2022-10-22T12:47:17.626Z,21.86
2022-10-22T12:49:49.156Z,24.87
2022-10-22T12:52:19.499Z,21.92
2022-10-22T12:54:48.700Z,22.08
2022-10-22T12:57:21.129Z,22.90
2022-10-22T12:59:52.187Z,21.85
2022-10-22T13:02:22.833Z,22.32
2022-10-22T13:05:15.991Z,23.24
2022-10-22T13:07:45.732Z,24.42
2022-10-22T13:10:19.977Z,24.89
2022-10-22T13:12:55.285Z,23.86
2022-10-22T13:15:34.887Z,23.21
2022-10-22T13:18:04.637Z,22.10
2022-10-22T13:20:33.176Z,22.68
2022-10-22T13:23:02.774Z,22.00
2022-10-22T13:25:31.786Z,22.05
2022-10-22T13:28:04.002Z,21.10
2022-10-22T13:30:34.019Z,21.01
2022-10-22T13:33:03.987Z,21.33
2022-10-22T13:35:34.136Z,21.22
2022-10-22T13:38:02.299Z,21.57
2022-10-22T13:40:30.145Z,23.28
2022-10-22T13:42:57.913Z,24.32
2022-10-22T13:45:27.434Z,24.75
2022-10-22T13:47:56.520Z,24.52
2022-10-22T13:50:24.208Z,25.02
2022-10-22T13:52:53.893Z,25.34
2022-10-22T13:55:25.421Z,25.73
2022-10-22T13:57:54.154Z,25.30
2022-10-22T14:00:23.209Z,25.91
2022-10-22T14:03:00.194Z,25.34
2022-10-22T14:05:27.888Z,24.36
2022-10-22T14:07:57.865Z,24.07
2022-10-22T14:10:25.978Z,24.32
2022-10-22T14:12:54.005Z,24.84
2022-10-22T14:15:23.708Z,24.68
2022-10-22T14:17:54.878Z,24.84
2022-10-22T14:20:25.843Z,24.55
2022-10-22T14:22:53.821Z,25.19
2022-10-22T14:25:23.672Z,25.05
2022-10-22T14:27:51.704Z,25.37
2022-10-22T14:30:21.547Z,24.45
2022-10-22T14:32:49.756Z,25.02
2022-10-22T14:35:21.147Z,24.48
2022-10-22T14:37:49.211Z,24.96
2022-10-22T14:40:19.134Z,24.74
2022-10-22T14:42:48.657Z,25.28
2022-10-22T14:45:20.982Z,24.33
2022-10-22T14:47:48.747Z,23.65
2022-10-22T14:50:18.289Z,24.64
2022-10-22T14:52:46.259Z,25.14
2022-10-22T14:55:15.641Z,23.55
2022-10-22T14:57:44.261Z,24.10
2022-10-22T15:00:18.768Z,23.85
2022-10-22T15:02:47.929Z,23.79
2022-10-22T15:05:17.353Z,23.62
2022-10-22T15:07:46.675Z,23.87
2022-10-22T15:10:15.322Z,24.28
2022-10-22T15:12:43.054Z,24.12
2022-10-22T15:15:11.436Z,23.98
2022-10-22T15:17:39.580Z,24.20
2022-10-22T15:20:08.595Z,24.11
2022-10-22T15:22:36.386Z,24.53
2022-10-22T15:25:08.086Z,24.25
2022-10-22T15:27:36.564Z,24.02
2022-10-22T15:30:05.279Z,23.85
2022-10-22T15:32:34.036Z,23.28
2022-10-22T15:35:02.157Z,23.50
2022-10-22T15:37:30.804Z,23.71
2022-10-22T15:39:58.528Z,23.74
2022-10-22T15:42:27.752Z,23.47
2022-10-22T15:44:59.077Z,23.60
2022-10-22T15:47:28.546Z,23.17
2022-10-22T15:49:56.619Z,22.95
2022-10-22T15:52:24.609Z,23.11
2022-10-22T15:54:52.329Z,22.70
2022-10-22T15:57:20.037Z,22.77
2022-10-22T15:59:50.016Z,22.74
2022-10-22T16:02:17.762Z,22.33
2022-10-22T16:04:45.467Z,22.10
2022-10-22T16:07:13.204Z,21.79
2022-10-22T16:09:40.937Z,21.54
2022-10-22T16:12:08.788Z,21.79
2022-10-22T16:14:36.577Z,21.95
2022-10-22T16:17:05.722Z,21.39
2022-10-22T16:19:34.152Z,21.02
2022-10-22T16:22:03.319Z,21.22
2022-10-22T16:24:31.129Z,20.96
2022-10-22T16:26:58.834Z,21.07
2022-10-22T16:29:26.617Z,21.07
2022-10-22T16:31:54.351Z,20.84
2022-10-22T16:34:23.480Z,20.63
2022-10-22T16:39:25.149Z,20.28
2022-10-22T16:41:52.879Z,20.32
2022-10-22T16:44:20.674Z,20.13
2022-10-22T16:46:48.410Z,19.80
2022-10-22T16:49:16.120Z,19.68
2022-10-22T16:51:45.257Z,19.47
2022-10-22T16:54:15.945Z,19.35
2022-10-22T16:56:43.718Z,19.61
2022-10-22T16:59:11.424Z,19.68
2022-10-22T17:01:41.247Z,19.81
2022-10-22T17:04:09.710Z,19.84
2022-10-22T17:06:37.606Z,19.33
2022-10-22T17:09:07.290Z,19.05
2022-10-22T17:11:37.031Z,19.19
2022-10-22T17:14:07.448Z,19.25
2022-10-22T17:16:37.324Z,19.22
2022-10-22T17:19:05.781Z,19.38
2022-10-22T17:21:33.868Z,19.70
2022-10-22T17:24:01.666Z,19.39
2022-10-22T17:26:34.586Z,19.77
2022-10-22T17:29:02.441Z,19.95
2022-10-22T17:31:32.618Z,20.01
2022-10-22T17:34:00.873Z,19.95
2022-10-22T17:36:33.302Z,19.72
2022-10-22T17:39:06.652Z,19.79
2022-10-22T17:41:36.838Z,19.82
2022-10-22T17:44:06.746Z,19.80
2022-10-22T17:46:34.423Z,18.94
2022-10-22T17:49:04.262Z,18.55
2022-10-22T17:51:32.973Z,18.74
2022-10-22T17:54:02.456Z,18.91
2022-10-22T17:56:32.475Z,19.04
2022-10-22T17:59:02.977Z,18.81
2022-10-22T18:01:32.682Z,18.98
2022-10-22T18:04:03.275Z,19.07
2022-10-22T18:06:31.672Z,19.10
2022-10-22T18:09:00.093Z,19.09
2022-10-22T18:11:31.437Z,19.12
2022-10-22T18:14:00.946Z,19.03
2022-10-22T18:16:29.341Z,19.00
2022-10-22T18:18:58.463Z,19.03
2022-10-22T18:21:28.302Z,19.02
2022-10-22T18:23:56.736Z,18.97
2022-10-22T18:26:26.797Z,18.86
2022-10-22T18:28:54.919Z,18.78
2022-10-22T18:31:25.748Z,18.50
2022-10-22T18:36:28.268Z,18.18
2022-10-22T18:38:58.061Z,18.29
2022-10-22T18:41:26.533Z,17.54
2022-10-22T18:43:55.649Z,17.02
2022-10-22T18:46:25.652Z,17.01
2022-10-22T18:48:54.424Z,17.50
2022-10-22T18:51:22.608Z,17.18
2022-10-22T18:54:04.500Z,17.20
2022-10-22T18:56:39.811Z,17.07
2022-10-22T18:59:07.544Z,17.16
2022-10-22T19:01:36.578Z,16.73
2022-10-22T19:04:04.287Z,17.10
2022-10-22T19:06:36.747Z,16.99
2022-10-22T19:09:05.333Z,16.76
2022-10-22T19:11:34.171Z,16.48
2022-10-22T19:14:02.460Z,16.22
2022-10-22T19:16:30.218Z,15.88
2022-10-22T19:19:03.842Z,16.06
2022-10-22T19:21:31.936Z,16.33
2022-10-22T19:24:00.737Z,16.68
2022-10-22T19:26:30.139Z,16.41
2022-10-22T19:28:59.146Z,16.42
2022-10-22T19:31:29.754Z,16.49
2022-10-22T19:33:57.496Z,16.49
2022-10-22T19:36:27.958Z,16.54
2022-10-22T19:38:56.842Z,16.58
2022-10-22T19:41:27.483Z,16.74
2022-10-22T19:43:56.895Z,16.95
2022-10-22T19:46:26.884Z,16.89
2022-10-22T19:48:56.928Z,17.09
2022-10-22T19:51:29.643Z,16.68
2022-10-22T19:54:01.896Z,16.67
2022-10-22T19:56:30.349Z,16.65
2022-10-22T19:58:58.460Z,16.64
2022-10-22T20:01:26.566Z,16.37
2022-10-22T20:03:54.823Z,16.18
2022-10-22T20:06:22.814Z,15.96
2022-10-22T20:08:55.232Z,15.91
2022-10-22T20:11:26.599Z,15.74
2022-10-22T20:13:54.688Z,15.50
2022-10-22T20:16:27.091Z,15.56
2022-10-22T20:18:54.960Z,15.72
2022-10-22T20:21:22.726Z,15.81
2022-10-22T20:23:56.586Z,15.91
2022-10-22T20:26:27.783Z,15.72
2022-10-22T20:28:56.191Z,15.94
2022-10-22T20:31:26.541Z,15.70
2022-10-22T20:33:57.037Z,15.64
2022-10-22T20:36:25.423Z,15.51
2022-10-22T20:39:00.318Z,15.81
2022-10-22T20:41:28.500Z,15.93
2022-10-22T20:43:56.440Z,15.91
2022-10-22T20:46:26.320Z,16.04
2022-10-22T20:48:56.114Z,16.13
2022-10-22T20:51:23.818Z,16.22
2022-10-22T20:53:51.645Z,16.08
2022-10-22T20:56:21.150Z,15.93
2022-10-22T20:58:49.076Z,16.14
2022-10-22T21:01:21.459Z,15.76
2022-10-22T21:03:49.696Z,15.36
2022-10-22T21:06:17.598Z,15.54
2022-10-22T21:08:45.289Z,15.62
2022-10-22T21:11:13.027Z,15.67
2022-10-22T21:13:42.036Z,15.72
2022-10-22T21:16:11.119Z,15.70
2022-10-22T21:18:39.221Z,15.54
2022-10-22T21:21:07.839Z,15.73
2022-10-22T21:23:36.817Z,15.74
2022-10-22T21:26:05.278Z,15.71
2022-10-22T21:28:35.165Z,15.74
2022-10-22T21:31:05.524Z,15.64
2022-10-22T21:33:33.469Z,15.72
2022-10-22T21:36:01.146Z,15.54
2022-10-22T21:38:28.836Z,15.67
2022-10-22T21:40:56.588Z,15.59
2022-10-22T21:43:24.381Z,15.46
2022-10-22T21:45:52.082Z,15.31
2022-10-22T21:48:21.091Z,15.19
2022-10-22T21:50:49.986Z,15.38
2022-10-22T21:53:17.659Z,15.53
2022-10-22T21:55:45.323Z,15.46
2022-10-22T21:58:13.038Z,15.41
2022-10-22T22:00:40.732Z,15.31
2022-10-22T22:03:08.946Z,15.41
2022-10-22T22:05:38.036Z,15.38
2022-10-22T22:08:06.196Z,15.45
2022-10-22T22:10:33.925Z,15.28
2022-10-22T22:13:01.644Z,15.06
2022-10-22T22:15:31.490Z,15.09
2022-10-22T22:17:59.191Z,14.99
2022-10-22T22:20:27.032Z,15.31
2022-10-22T22:22:56.055Z,15.35
2022-10-22T22:25:23.773Z,15.39
2022-10-22T22:27:51.449Z,15.52
2022-10-22T22:30:19.149Z,15.41
2022-10-22T22:32:46.889Z,15.60
2022-10-22T22:35:14.618Z,15.33
2022-10-22T22:37:42.526Z,15.08
2022-10-22T22:40:12.770Z,15.00
2022-10-22T22:42:40.456Z,15.11
2022-10-22T22:45:08.776Z,14.93
2022-10-22T22:47:36.428Z,14.97
2022-10-22T22:50:04.279Z,14.77
2022-10-22T22:52:32.093Z,14.70
2022-10-22T22:54:59.761Z,14.86
2022-10-22T22:57:29.038Z,14.82
2022-10-22T22:59:59.636Z,14.66
2022-10-22T23:02:27.411Z,14.84
2022-10-22T23:04:55.235Z,14.85
2022-10-22T23:07:22.940Z,14.88
2022-10-22T23:09:50.730Z,14.87
2022-10-22T23:12:18.606Z,14.71
2022-10-22T23:14:50.224Z,14.87
2022-10-22T23:17:18.061Z,14.68
2022-10-22T23:19:45.817Z,14.49
2022-10-22T23:22:13.508Z,14.36
2022-10-22T23:24:41.206Z,14.30
2022-10-22T23:27:08.849Z,14.39
2022-10-22T23:29:36.975Z,14.31
2022-10-22T23:32:09.294Z,14.33
2022-10-22T23:34:36.980Z,14.48
2022-10-22T23:37:04.875Z,14.13
2022-10-22T23:39:32.758Z,14.29
2022-10-22T23:42:00.432Z,14.61
2022-10-22T23:44:28.135Z,14.40
2022-10-22T23:46:56.092Z,14.43
2022-10-22T23:49:25.121Z,14.62
2022-10-22T23:51:52.942Z,14.61
2022-10-22T23:54:20.751Z,14.74
2022-10-22T23:56:48.638Z,14.45
2022-10-22T23:59:16.523Z,14.50
